createdAt,value
2022-09-28T00:01:21.833Z,65.72
2022-09-28T00:05:26.943Z,65.59
2022-09-28T00:09:29.960Z,65.63
2022-09-28T00:13:33.314Z,65.60
2022-09-28T00:17:37.649Z,65.70
2022-09-28T00:21:42.312Z,66.06
2022-09-28T00:25:45.504Z,66.50
2022-09-28T00:29:48.376Z,66.00
2022-09-28T00:33:55.320Z,66.37
2022-09-28T00:37:58.181Z,66.41
2022-09-28T00:42:01.038Z,66.54
2022-09-28T00:46:07.625Z,66.53
2022-09-28T00:50:19.632Z,66.60
2022-09-28T00:54:23.601Z,66.66
2022-09-28T00:58:33.142Z,66.93
2022-09-28T01:02:36.179Z,66.95
2022-09-28T01:06:41.201Z,67.19
2022-09-28T01:10:44.740Z,67.13
2022-09-28T01:14:50.301Z,67.14
2022-09-28T01:19:08.353Z,67.13
2022-09-28T01:23:50.109Z,67.40
2022-09-28T01:27:59.045Z,67.19
2022-09-28T01:32:13.486Z,67.32
2022-09-28T01:36:21.799Z,67.61
2022-09-28T01:40:27.435Z,67.54
2022-09-28T01:44:39.780Z,67.52
2022-09-28T01:48:49.593Z,67.73
2022-09-28T01:52:59.229Z,67.85
2022-09-28T01:57:08.977Z,67.53
2022-09-28T02:01:18.291Z,67.81
2022-09-28T02:05:25.816Z,67.78
2022-09-28T02:09:36.750Z,68.20
2022-09-28T02:13:44.187Z,67.93
2022-09-28T02:17:50.169Z,68.07
2022-09-28T02:21:59.009Z,68.02
2022-09-28T02:26:04.638Z,68.24
2022-09-28T02:30:10.779Z,68.31
2022-09-28T02:34:15.406Z,68.35
2022-09-28T02:38:18.891Z,68.42
2022-09-28T02:42:28.675Z,68.58
2022-09-28T02:46:43.247Z,68.29
2022-09-28T02:51:06.003Z,68.95
2022-09-28T02:55:21.136Z,68.61
2022-09-28T02:59:43.247Z,68.84
2022-09-28T03:03:51.441Z,68.87
2022-09-28T03:08:01.112Z,69.10
2022-09-28T03:12:09.499Z,68.92
2022-09-28T03:16:14.568Z,69.07
2022-09-28T03:20:20.406Z,69.48
2022-09-28T03:24:24.753Z,69.21
2022-09-28T03:28:29.305Z,69.12
2022-09-28T03:32:32.434Z,69.37
2022-09-28T03:36:35.662Z,69.75
2022-09-28T03:40:40.424Z,69.45
2022-09-28T03:44:43.747Z,69.49
2022-09-28T03:48:47.293Z,69.80
2022-09-28T03:52:50.306Z,69.81
2022-09-28T03:56:55.115Z,69.79
2022-09-28T04:01:03.495Z,69.65
2022-09-28T04:05:07.377Z,69.74
2022-09-28T04:09:10.591Z,69.71
2022-09-28T04:13:15.484Z,69.60
2022-09-28T04:17:18.868Z,69.71
2022-09-28T04:21:22.719Z,69.66
2022-09-28T04:25:31.411Z,69.19
2022-09-28T04:29:35.942Z,69.44
2022-09-28T04:33:40.132Z,69.65
2022-09-28T04:37:43.954Z,69.56
2022-09-28T04:41:49.144Z,69.53
2022-09-28T04:45:54.192Z,69.58
2022-09-28T04:49:58.306Z,69.52
2022-09-28T04:54:05.572Z,69.07
2022-09-28T04:58:08.543Z,69.53
2022-09-28T05:02:15.182Z,70.16
2022-09-28T05:06:47.783Z,69.84
2022-09-28T05:10:59.299Z,69.78
2022-09-28T05:15:02.517Z,69.61
2022-09-28T05:19:07.340Z,69.62
2022-09-28T05:23:12.050Z,69.61
2022-09-28T05:27:16.722Z,69.69
2022-09-28T05:31:23.977Z,69.60
2022-09-28T05:35:41.231Z,69.66
2022-09-28T05:39:44.758Z,69.69
2022-09-28T05:43:47.664Z,69.45
2022-09-28T05:47:51.158Z,69.76
2022-09-28T05:51:58.468Z,69.65
2022-09-28T05:56:01.715Z,69.57
2022-09-28T06:00:34.208Z,69.71
2022-09-28T06:04:42.967Z,69.33
2022-09-28T06:08:51.721Z,69.16
2022-09-28T06:13:12.177Z,69.12
2022-09-28T06:17:21.223Z,68.84
2022-09-28T06:21:48.970Z,68.60
2022-09-28T06:25:55.005Z,68.79
2022-09-28T06:30:02.631Z,68.83
2022-09-28T06:34:07.639Z,68.54
2022-09-28T06:38:14.860Z,68.68
2022-09-28T06:42:20.342Z,68.42
2022-09-28T06:46:42.576Z,68.17
2022-09-28T06:51:13.565Z,67.61
2022-09-28T06:55:32.248Z,67.42
2022-09-28T06:59:40.165Z,67.86
2022-09-28T07:03:44.151Z,67.58
2022-09-28T07:08:26.229Z,67.67
2022-09-28T07:12:50.668Z,67.76
2022-09-28T07:17:13.250Z,67.56
2022-09-28T07:21:28.127Z,67.52
2022-09-28T07:25:36.455Z,67.43
2022-09-28T07:29:47.139Z,67.21
2022-09-28T07:34:16.961Z,67.37
2022-09-28T07:38:34.921Z,66.87
2022-09-28T07:42:38.393Z,67.12
2022-09-28T07:46:45.920Z,67.36
2022-09-28T07:51:17.987Z,67.33
2022-09-28T07:55:32.020Z,67.03
2022-09-28T08:00:07.744Z,67.30
2022-09-28T08:04:25.419Z,67.54
2022-09-28T08:08:31.187Z,67.87
2022-09-28T08:12:35.989Z,68.58
2022-09-28T08:17:03.268Z,69.60
2022-09-28T08:21:30.411Z,68.45
2022-09-28T08:25:36.709Z,67.87
2022-09-28T08:29:42.637Z,67.82
2022-09-28T08:34:04.584Z,67.85
2022-09-28T08:38:34.596Z,67.97
2022-09-28T08:43:40.927Z,67.79
2022-09-28T08:48:32.572Z,68.49
2022-09-28T08:53:22.084Z,68.01
2022-09-28T08:57:44.465Z,67.98
2022-09-28T09:01:55.921Z,68.51
2022-09-28T09:06:10.378Z,68.65
2022-09-28T09:10:49.001Z,67.51
2022-09-28T09:15:17.292Z,66.95
2022-09-28T09:19:55.874Z,66.73
2022-09-28T09:24:25.143Z,66.37
2022-09-28T09:28:56.457Z,66.13
2022-09-28T09:33:40.119Z,66.44
2022-09-28T09:38:34.618Z,66.28
2022-09-28T09:43:18.725Z,65.78
2022-09-28T09:47:45.629Z,66.47
2022-09-28T09:52:15.081Z,65.89
2022-09-28T09:56:27.373Z,65.95
2022-09-28T10:01:10.571Z,65.70
2022-09-28T10:05:36.990Z,65.68
2022-09-28T10:09:48.932Z,64.79
2022-09-28T10:14:23.745Z,64.16
2022-09-28T10:18:40.245Z,62.42
2022-09-28T10:23:07.017Z,61.46
2022-09-28T10:27:16.679Z,59.19
2022-09-28T10:31:43.115Z,58.41
2022-09-28T10:36:00.212Z,58.15
2022-09-28T10:40:04.537Z,57.57
2022-09-28T10:44:19.965Z,56.72
2022-09-28T10:48:53.688Z,56.65
2022-09-28T10:53:13.499Z,56.13
2022-09-28T10:57:49.994Z,56.13
2022-09-28T11:01:59.337Z,55.53
2022-09-28T11:06:08.762Z,55.00
2022-09-28T11:10:23.762Z,55.05
2022-09-28T11:14:39.615Z,54.73
2022-09-28T11:18:48.503Z,55.05
2022-09-28T11:22:54.976Z,55.37
2022-09-28T11:27:04.052Z,55.33
2022-09-28T11:31:11.368Z,55.14
2022-09-28T11:35:46.985Z,55.16
2022-09-28T11:39:59.231Z,55.29
2022-09-28T11:44:32.544Z,55.42
2022-09-28T11:48:45.363Z,55.64
2022-09-28T11:52:53.539Z,55.74
2022-09-28T11:57:02.646Z,55.74
2022-09-28T12:01:18.865Z,55.29
2022-09-28T12:05:50.790Z,55.94
2022-09-28T12:10:01.103Z,56.03
2022-09-28T12:14:22.465Z,56.46
2022-09-28T12:18:32.470Z,56.48
2022-09-28T12:22:55.819Z,56.06
2022-09-28T12:27:04.518Z,56.32
2022-09-28T12:31:17.207Z,56.24
2022-09-28T12:35:29.766Z,56.22
2022-09-28T12:39:57.449Z,55.41
2022-09-28T12:44:24.567Z,55.74
2022-09-28T12:49:43.662Z,55.94
2022-09-28T12:53:43.949Z,55.89
2022-09-28T12:57:59.346Z,56.33
2022-09-28T13:02:39.384Z,55.73
2022-09-28T13:06:58.268Z,55.86
2022-09-28T13:11:10.959Z,55.83
2022-09-28T13:15:44.492Z,55.66
2022-09-28T13:19:56.421Z,55.54
2022-09-28T13:24:27.827Z,55.31
2022-09-28T13:28:31.673Z,55.76
2022-09-28T13:32:39.030Z,55.57
2022-09-28T13:36:47.890Z,55.26
2022-09-28T13:41:16.255Z,55.38
2022-09-28T13:45:44.393Z,55.43
2022-09-28T13:50:16.407Z,55.40
2022-09-28T13:54:47.034Z,56.02
2022-09-28T13:59:03.712Z,56.26
2022-09-28T14:03:15.071Z,56.38
2022-09-28T14:07:23.553Z,56.47
2022-09-28T14:11:43.261Z,56.91
2022-09-28T14:15:48.006Z,57.55
2022-09-28T14:19:55.208Z,57.46
2022-09-28T14:24:15.547Z,57.78
2022-09-28T14:28:43.656Z,57.89
2022-09-28T14:33:00.166Z,58.37
2022-09-28T14:37:24.312Z,58.00
2022-09-28T14:41:34.778Z,58.37
2022-09-28T14:45:51.481Z,58.20
2022-09-28T14:50:41.159Z,58.66
2022-09-28T14:54:54.482Z,59.03
2022-09-28T14:59:00.261Z,59.34
2022-09-28T15:03:12.068Z,59.14
2022-09-28T15:08:11.649Z,59.08
2022-09-28T15:12:39.635Z,59.03
2022-09-28T15:16:45.895Z,58.99
2022-09-28T15:21:03.652Z,59.28
2022-09-28T15:25:15.732Z,59.11
2022-09-28T15:29:26.165Z,59.72
2022-09-28T15:34:01.435Z,59.96
2022-09-28T15:38:06.825Z,60.64
2022-09-28T15:42:10.101Z,61.31
2022-09-28T15:46:18.442Z,61.85
2022-09-28T15:50:23.928Z,62.20
2022-09-28T15:54:32.820Z,62.44
2022-09-28T15:58:36.030Z,62.54
2022-09-28T16:03:00.328Z,62.82
2022-09-28T16:07:19.429Z,63.63
2022-09-28T16:11:27.528Z,62.48
2022-09-28T16:15:35.186Z,61.35
2022-09-28T16:19:40.167Z,60.62
2022-09-28T16:23:43.627Z,59.76
2022-09-28T16:27:47.228Z,59.74
2022-09-28T16:31:52.717Z,59.75
2022-09-28T16:35:57.199Z,59.92
2022-09-28T16:40:00.536Z,60.11
2022-09-28T16:44:03.854Z,60.33
2022-09-28T16:48:07.192Z,59.94
2022-09-28T16:52:13.140Z,59.73
2022-09-28T16:56:16.550Z,59.60
2022-09-28T17:00:22.908Z,59.36
2022-09-28T17:04:27.030Z,58.83
2022-09-28T17:08:33.719Z,58.96
2022-09-28T17:12:36.738Z,58.56
2022-09-28T17:21:05.191Z,58.27
2022-09-28T17:25:12.700Z,58.33
2022-09-28T17:29:16.892Z,58.71
2022-09-28T17:33:20.322Z,58.36
2022-09-28T17:37:23.651Z,58.14
2022-09-28T17:42:00.382Z,57.90
2022-09-28T17:46:30.218Z,57.69
2022-09-28T17:50:35.301Z,57.66
2022-09-28T17:54:38.447Z,57.59
2022-09-28T17:58:42.852Z,57.89
2022-09-28T18:02:46.543Z,57.77
2022-09-28T18:06:51.204Z,58.00
2022-09-28T18:10:54.688Z,57.93
2022-09-28T18:14:59.337Z,57.81
2022-09-28T18:19:02.343Z,57.75
2022-09-28T18:23:06.008Z,57.93
2022-09-28T18:27:09.141Z,57.96
2022-09-28T18:31:15.311Z,58.11
2022-09-28T18:35:22.736Z,58.13
2022-09-28T18:39:26.628Z,58.24
2022-09-28T18:43:32.142Z,58.55
2022-09-28T18:47:40.587Z,58.57
2022-09-28T18:51:43.820Z,58.70
2022-09-28T18:55:47.061Z,58.81
2022-09-28T18:59:50.080Z,59.03
2022-09-28T19:03:54.512Z,58.63
2022-09-28T19:07:57.566Z,58.57
2022-09-28T19:12:00.575Z,58.64
2022-09-28T19:16:08.779Z,58.77
2022-09-28T19:20:13.211Z,58.92
2022-09-28T19:24:17.975Z,58.86
2022-09-28T19:28:21.353Z,59.14
2022-09-28T19:32:24.535Z,58.98
2022-09-28T19:36:30.166Z,59.15
2022-09-28T19:40:33.407Z,59.55
2022-09-28T19:44:37.393Z,59.59
2022-09-28T19:48:41.287Z,59.62
2022-09-28T19:52:45.682Z,59.76
2022-09-28T19:56:48.881Z,59.42
2022-09-28T20:00:52.569Z,59.60
2022-09-28T20:04:55.497Z,59.32
2022-09-28T20:08:59.951Z,59.12
2022-09-28T20:13:03.181Z,59.12
2022-09-28T20:17:06.455Z,59.25
2022-09-28T20:21:12.213Z,59.46
2022-09-28T20:25:18.811Z,59.45
2022-09-28T20:29:21.907Z,60.02
2022-09-28T20:33:28.794Z,59.82
2022-09-28T20:37:34.116Z,60.32
2022-09-28T20:41:38.845Z,60.70
2022-09-28T20:45:41.932Z,60.88
2022-09-28T20:49:46.416Z,60.53
2022-09-28T20:53:51.405Z,60.79
2022-09-28T20:57:56.023Z,61.17
2022-09-28T21:01:59.398Z,61.25
2022-09-28T21:06:02.996Z,61.65
2022-09-28T21:10:07.084Z,61.75
2022-09-28T21:14:11.783Z,62.25
2022-09-28T21:18:15.027Z,62.51
2022-09-28T21:22:18.573Z,62.52
2022-09-28T21:26:25.691Z,63.21
2022-09-28T21:30:30.135Z,63.38
2022-09-28T21:34:33.587Z,63.52
2022-09-28T21:38:36.588Z,63.77
2022-09-28T21:42:39.643Z,63.54
2022-09-28T21:46:44.475Z,64.03
2022-09-28T21:50:56.793Z,64.48
2022-09-28T21:54:59.869Z,64.60
2022-09-28T21:59:03.029Z,64.72
2022-09-28T22:03:07.514Z,65.15
2022-09-28T22:07:11.032Z,65.38
2022-09-28T22:11:16.487Z,65.44
2022-09-28T22:15:19.534Z,65.53
2022-09-28T22:19:23.885Z,65.58
2022-09-28T22:23:27.281Z,65.49
2022-09-28T22:27:32.987Z,65.12
2022-09-28T22:31:38.165Z,64.92
2022-09-28T22:35:42.784Z,64.82
2022-09-28T22:39:46.155Z,64.91
2022-09-28T22:43:50.444Z,64.74
2022-09-28T22:47:53.438Z,64.33
2022-09-28T22:51:57.974Z,64.17
2022-09-28T22:56:04.068Z,64.07
2022-09-28T23:00:08.704Z,64.16
2022-09-28T23:04:11.836Z,64.00
2022-09-28T23:08:16.174Z,63.91
2022-09-28T23:12:19.332Z,64.24
2022-09-28T23:16:23.682Z,64.45
2022-09-28T23:20:26.814Z,64.47
2022-09-28T23:24:31.394Z,64.27
2022-09-28T23:28:34.379Z,64.55
2022-09-28T23:32:37.524Z,64.83
2022-09-28T23:36:40.866Z,64.90
2022-09-28T23:40:46.514Z,65.04
2022-09-28T23:44:49.569Z,65.18
2022-09-28T23:48:52.715Z,65.29
2022-09-28T23:52:55.902Z,65.12
2022-09-28T23:57:00.465Z,65.72
